createdAt,value
2019-01-23T00:02:25.123Z,19.83
2019-01-23T00:04:53.236Z,15.83
2019-01-23T00:07:20.874Z,20.83
2019-01-23T00:09:48.496Z,21.83
2019-01-23T00:12:16.053Z,12.97
2019-01-23T00:14:43.563Z,24.57
2019-01-23T00:17:11.134Z,18.90
2019-01-23T00:19:38.908Z,23.57
2019-01-23T00:22:06.510Z,17.30
2019-01-23T00:24:34.203Z,19.77
2019-01-23T00:27:02.018Z,18.50
2019-01-23T00:29:29.535Z,20.00
2019-01-23T00:31:57.110Z,20.20
2019-01-23T00:34:24.691Z,21.17
2019-01-23T00:36:52.718Z,23.97
2019-01-23T00:39:20.366Z,18.77
2019-01-23T00:41:47.922Z,20.70
2019-01-23T00:44:15.527Z,19.70
2019-01-23T00:46:43.462Z,22.60
2019-01-23T00:49:11.437Z,21.37
2019-01-23T00:51:39.019Z,21.33
2019-01-23T00:54:06.849Z,17.03
2019-01-23T00:56:34.710Z,19.03
2019-01-23T00:59:02.601Z,18.87
2019-01-23T01:01:30.156Z,17.87
2019-01-23T01:03:57.838Z,19.97
2019-01-23T01:06:25.500Z,17.57
2019-01-23T01:08:53.582Z,17.50
2019-01-23T01:11:21.181Z,20.20
2019-01-23T01:13:48.781Z,19.03
2019-01-23T01:16:16.460Z,22.70
2019-01-23T01:18:43.976Z,18.03
2019-01-23T01:21:11.619Z,21.47
2019-01-23T01:23:39.186Z,17.80
2019-01-23T01:26:06.693Z,19.73
2019-01-23T01:28:34.565Z,22.80
2019-01-23T01:31:02.188Z,19.30
2019-01-23T01:33:33.942Z,19.83
2019-01-23T01:35:59.579Z,20.50
2019-01-23T01:38:27.165Z,18.87
2019-01-23T01:40:54.744Z,21.33
2019-01-23T01:43:22.319Z,20.97
2019-01-23T01:45:49.919Z,23.80
2019-01-23T01:48:17.472Z,20.33
2019-01-23T01:50:45.072Z,19.60
2019-01-23T01:53:12.703Z,18.93
2019-01-23T01:55:40.249Z,19.77
2019-01-23T01:58:10.236Z,16.33
2019-01-23T02:00:37.303Z,19.77
2019-01-23T02:03:05.068Z,18.07
2019-01-23T02:05:32.728Z,19.27
2019-01-23T02:08:00.320Z,19.53
2019-01-23T02:10:27.917Z,19.07
2019-01-23T02:12:55.736Z,17.53
2019-01-23T02:15:23.357Z,13.40
2019-01-23T02:17:50.982Z,19.60
2019-01-23T02:20:26.377Z,17.70
2019-01-23T02:22:53.923Z,18.23
2019-01-23T02:25:22.140Z,15.73
2019-01-23T02:27:49.689Z,21.43
2019-01-23T02:30:21.357Z,20.07
2019-01-23T02:32:49.030Z,19.97
2019-01-23T02:35:17.331Z,20.03
2019-01-23T02:37:44.960Z,20.77
2019-01-23T02:40:15.220Z,18.60
2019-01-23T02:42:42.910Z,20.10
2019-01-23T02:45:11.199Z,19.70
2019-01-23T02:47:39.147Z,19.30
2019-01-23T02:50:06.902Z,21.07
2019-01-23T02:52:34.822Z,19.70
2019-01-23T02:55:03.338Z,20.37
2019-01-23T02:57:31.278Z,20.93
2019-01-23T02:59:58.854Z,20.53
2019-01-23T03:02:26.484Z,20.17
2019-01-23T03:04:54.072Z,20.97
2019-01-23T03:07:21.780Z,20.80
2019-01-23T03:09:49.340Z,20.97
2019-01-23T03:17:53.162Z,19.90
2019-01-23T03:26:25.408Z,17.47
2019-01-23T03:29:05.863Z,19.40
2019-01-23T03:31:46.447Z,20.63
2019-01-23T03:34:26.151Z,22.17
2019-01-23T03:37:06.682Z,19.30
2019-01-23T03:39:46.860Z,21.17
2019-01-23T03:42:26.665Z,20.87
2019-01-23T03:45:06.937Z,21.23
2019-01-23T03:47:46.962Z,20.37
2019-01-23T03:50:27.259Z,20.33
2019-01-23T03:53:07.200Z,22.07
2019-01-23T03:55:47.384Z,21.67
2019-01-23T03:58:27.818Z,20.40
2019-01-23T04:01:07.725Z,20.40
2019-01-23T04:03:47.852Z,19.93
2019-01-23T04:06:28.342Z,21.43
2019-01-23T04:09:08.079Z,20.97
2019-01-23T04:11:48.194Z,21.83
2019-01-23T04:14:28.568Z,22.30
2019-01-23T04:17:08.540Z,21.57
2019-01-23T04:19:48.588Z,22.43
2019-01-23T04:22:28.711Z,22.13
2019-01-23T04:25:08.695Z,22.33
2019-01-23T04:27:49.220Z,21.47
2019-01-23T04:30:28.985Z,22.03
2019-01-23T04:33:09.173Z,20.73
2019-01-23T04:35:49.317Z,21.63
2019-01-23T04:38:29.188Z,21.57
2019-01-23T04:41:09.373Z,19.83
2019-01-23T04:43:49.611Z,22.67
2019-01-23T04:46:30.112Z,22.10
2019-01-23T04:49:09.770Z,22.00
2019-01-23T04:51:54.277Z,22.87
2019-01-23T04:54:34.623Z,22.30
2019-01-23T04:57:14.949Z,22.10
2019-01-23T04:59:54.714Z,21.37
2019-01-23T05:02:35.212Z,20.43
2019-01-23T05:05:14.869Z,21.43
2019-01-23T05:07:55.031Z,21.73
2019-01-23T05:10:35.265Z,20.57
2019-01-23T05:13:15.422Z,21.90
2019-01-23T05:15:55.335Z,20.60
2019-01-23T05:18:35.531Z,19.20
2019-01-23T05:21:16.294Z,20.53
2019-01-23T05:23:55.736Z,20.63
2019-01-23T05:26:35.737Z,21.13
2019-01-23T05:29:15.814Z,20.97
2019-01-23T05:31:56.026Z,20.67
2019-01-23T05:34:36.339Z,19.97
2019-01-23T05:37:16.064Z,21.17
2019-01-23T05:39:56.239Z,20.37
2019-01-23T05:42:36.265Z,20.33
2019-01-23T05:45:16.631Z,19.97
2019-01-23T05:47:57.067Z,22.20
2019-01-23T05:50:36.594Z,20.40
2019-01-23T05:53:16.585Z,21.50
2019-01-23T05:55:57.398Z,20.53
2019-01-23T05:58:36.870Z,21.47
2019-01-23T06:01:17.145Z,20.90
2019-01-23T06:03:57.692Z,20.00
2019-01-23T06:06:37.419Z,19.70
2019-01-23T06:09:18.073Z,21.03
2019-01-23T06:11:57.871Z,22.87
2019-01-23T06:14:38.159Z,23.47
2019-01-23T06:17:18.116Z,24.27
2019-01-23T06:19:58.348Z,24.63
2019-01-23T06:22:38.581Z,25.53
2019-01-23T06:25:46.738Z,25.13
2019-01-23T06:31:26.870Z,23.17
2019-01-23T06:40:07.227Z,24.10
2019-01-23T06:42:53.986Z,23.37
2019-01-23T06:45:40.797Z,24.47
2019-01-23T06:48:27.973Z,23.87
2019-01-23T06:51:15.079Z,25.03
2019-01-23T07:05:33.847Z,37.10
2019-01-23T07:08:20.895Z,36.07
2019-01-23T07:11:07.663Z,32.10
2019-01-23T07:13:54.468Z,29.33
2019-01-23T07:16:41.604Z,27.70
2019-01-23T07:19:28.386Z,27.93
2019-01-23T07:22:08.218Z,29.33
2019-01-23T07:24:48.307Z,29.00
2019-01-23T07:27:28.388Z,29.03
2019-01-23T07:30:08.823Z,31.43
2019-01-23T07:32:48.709Z,32.83
2019-01-23T07:35:28.746Z,37.37
2019-01-23T07:38:08.829Z,38.73
2019-01-23T07:40:48.876Z,36.07
2019-01-23T07:43:29.143Z,31.77
2019-01-23T07:46:09.332Z,32.27
2019-01-23T07:48:49.288Z,32.17
2019-01-23T07:51:29.505Z,33.03
2019-01-23T07:54:09.599Z,32.83
2019-01-23T07:56:49.618Z,32.20
2019-01-23T07:59:31.884Z,32.27
2019-01-23T08:02:11.983Z,31.20
2019-01-23T08:04:52.304Z,30.77
2019-01-23T08:07:31.934Z,29.67
2019-01-23T08:10:12.126Z,33.47
2019-01-23T08:12:51.971Z,36.10
2019-01-23T08:15:32.409Z,33.93
2019-01-23T08:18:12.026Z,36.20
2019-01-23T08:20:52.629Z,37.57
2019-01-23T08:23:32.092Z,36.17
2019-01-23T08:26:12.413Z,32.23
2019-01-23T08:28:52.889Z,31.67
2019-01-23T08:31:33.162Z,33.73
2019-01-23T08:34:12.976Z,33.23
2019-01-23T08:36:40.306Z,33.77
2019-01-23T08:39:08.268Z,35.30
2019-01-23T08:41:35.655Z,35.50
2019-01-23T08:44:03.335Z,32.87
2019-01-23T08:46:30.898Z,34.07
2019-01-23T08:48:58.523Z,31.93
2019-01-23T08:51:25.865Z,32.00
2019-01-23T08:53:53.472Z,31.27
2019-01-23T08:56:20.792Z,29.77
2019-01-23T08:58:48.138Z,31.17
2019-01-23T09:01:15.413Z,30.70
2019-01-23T09:03:42.897Z,31.50
2019-01-23T09:06:10.581Z,30.97
2019-01-23T09:08:38.168Z,31.37
2019-01-23T09:11:05.624Z,30.00
2019-01-23T09:13:32.969Z,28.03
2019-01-23T09:16:00.514Z,30.03
2019-01-23T09:18:28.077Z,31.60
2019-01-23T09:20:55.399Z,30.27
2019-01-23T09:23:22.686Z,30.70
2019-01-23T09:25:51.619Z,28.77
2019-01-23T09:28:19.001Z,30.33
2019-01-23T09:31:14.489Z,30.90
2019-01-23T09:33:59.712Z,30.63
2019-01-23T09:37:17.947Z,33.47
2019-01-23T09:40:10.199Z,31.80
2019-01-23T09:43:09.053Z,32.40
2019-01-23T09:46:12.576Z,32.23
2019-01-23T09:49:20.839Z,33.23
2019-01-23T09:52:14.246Z,32.63
2019-01-23T09:54:41.586Z,33.27
2019-01-23T09:57:08.875Z,33.97
2019-01-23T09:59:36.336Z,31.50
2019-01-23T10:02:03.918Z,33.23
2019-01-23T10:04:31.438Z,33.07
2019-01-23T10:06:58.866Z,32.47
2019-01-23T10:09:26.204Z,32.00
2019-01-23T10:11:53.574Z,32.33
2019-01-23T10:14:20.948Z,33.10
2019-01-23T10:16:48.296Z,33.37
2019-01-23T10:19:15.624Z,34.10
2019-01-23T10:21:42.932Z,34.53
2019-01-23T10:24:10.273Z,35.63
2019-01-23T10:26:37.947Z,35.80
2019-01-23T10:29:05.241Z,35.33
2019-01-23T10:31:32.568Z,34.07
2019-01-23T10:33:59.836Z,36.77
2019-01-23T10:36:27.150Z,35.10
2019-01-23T10:38:54.554Z,33.97
2019-01-23T10:41:22.290Z,34.67
2019-01-23T10:43:49.640Z,34.13
2019-01-23T10:46:17.361Z,34.43
2019-01-23T10:48:44.678Z,34.83
2019-01-23T10:51:12.269Z,32.50
2019-01-23T10:53:39.542Z,34.33
2019-01-23T10:56:06.902Z,34.67
2019-01-23T10:58:34.510Z,34.57
2019-01-23T11:01:01.816Z,35.77
2019-01-23T11:03:29.140Z,35.40
2019-01-23T11:05:56.471Z,34.33
2019-01-23T11:08:23.732Z,34.50
2019-01-23T11:10:51.058Z,32.80
2019-01-23T11:13:18.372Z,34.07
2019-01-23T11:15:45.756Z,34.10
2019-01-23T11:18:13.424Z,35.73
2019-01-23T11:20:40.737Z,32.57
2019-01-23T11:23:08.017Z,33.30
2019-01-23T11:25:35.331Z,33.87
2019-01-23T11:28:03.100Z,35.43
2019-01-23T11:30:30.718Z,34.83
2019-01-23T11:32:58.042Z,33.73
2019-01-23T11:35:25.432Z,34.20
2019-01-23T11:37:52.935Z,34.40
2019-01-23T11:40:25.187Z,31.50
2019-01-23T11:42:52.594Z,33.17
2019-01-23T11:45:20.106Z,33.20
2019-01-23T11:47:47.671Z,31.73
2019-01-23T11:50:21.293Z,30.20
2019-01-23T11:52:46.098Z,31.07
2019-01-23T11:55:13.497Z,31.47
2019-01-23T11:57:41.129Z,31.43
2019-01-23T12:00:16.346Z,32.60
2019-01-23T12:02:43.682Z,32.20
2019-01-23T12:05:12.645Z,32.13
2019-01-23T12:07:40.121Z,30.27
2019-01-23T12:10:10.397Z,29.60
2019-01-23T12:12:37.696Z,29.03
2019-01-23T12:15:09.164Z,31.07
2019-01-23T12:17:37.086Z,29.63
2019-01-23T12:20:05.009Z,28.83
2019-01-23T12:22:32.450Z,27.40
2019-01-23T12:24:59.759Z,26.60
2019-01-23T12:27:27.064Z,26.83
2019-01-23T12:29:54.319Z,26.43
2019-01-23T12:32:21.917Z,25.60
2019-01-23T12:34:49.810Z,25.83
2019-01-23T12:37:17.204Z,25.73
2019-01-23T12:39:44.528Z,25.27
2019-01-23T12:42:11.942Z,24.30
2019-01-23T12:44:39.277Z,24.27
2019-01-23T12:47:06.591Z,24.57
2019-01-23T12:49:33.900Z,24.37
2019-01-23T12:52:01.459Z,24.33
2019-01-23T12:54:28.781Z,22.23
2019-01-23T12:56:56.068Z,22.83
2019-01-23T12:59:23.363Z,24.10
2019-01-23T13:01:50.694Z,23.93
2019-01-23T13:04:18.363Z,24.27
2019-01-23T13:06:45.732Z,22.83
2019-01-23T13:09:13.042Z,23.10
2019-01-23T13:11:40.378Z,27.70
2019-01-23T13:14:07.658Z,24.20
2019-01-23T13:16:35.170Z,23.43
2019-01-23T13:19:02.730Z,24.37
2019-01-23T13:21:30.055Z,23.67
2019-01-23T13:23:57.472Z,24.20
2019-01-23T13:26:24.875Z,24.07
2019-01-23T13:28:52.418Z,22.70
2019-01-23T13:31:19.744Z,21.50
2019-01-23T13:33:47.021Z,22.40
2019-01-23T13:36:14.310Z,21.70
2019-01-23T13:38:42.248Z,22.53
2019-01-23T13:41:10.163Z,23.90
2019-01-23T13:43:37.555Z,23.80
2019-01-23T13:46:04.912Z,22.97
2019-01-23T13:48:32.463Z,23.07
2019-01-23T13:51:00.533Z,24.00
2019-01-23T13:53:28.111Z,23.13
2019-01-23T13:55:55.814Z,23.77
2019-01-23T13:58:23.140Z,22.43
2019-01-23T14:00:50.419Z,22.87
2019-01-23T14:03:18.332Z,22.60
2019-01-23T14:05:45.584Z,23.37
2019-01-23T14:08:13.214Z,22.30
2019-01-23T14:10:41.208Z,22.87
2019-01-23T14:13:08.500Z,22.60
2019-01-23T14:15:37.027Z,22.33
2019-01-23T14:18:05.243Z,22.87
2019-01-23T14:20:32.525Z,22.67
2019-01-23T14:22:59.851Z,23.67
2019-01-23T14:25:27.123Z,24.90
2019-01-23T14:27:54.500Z,25.13
2019-01-23T14:30:33.334Z,23.73
2019-01-23T14:33:00.779Z,25.03
2019-01-23T14:35:28.753Z,24.47
2019-01-23T14:38:00.520Z,26.90
2019-01-23T14:40:25.388Z,25.63
2019-01-23T14:42:52.743Z,25.20
2019-01-23T14:45:20.063Z,25.63
2019-01-23T14:47:47.437Z,27.37
2019-01-23T14:50:15.110Z,26.27
2019-01-23T14:52:43.071Z,25.53
2019-01-23T14:55:10.577Z,25.53
2019-01-23T14:57:38.303Z,24.53
2019-01-23T15:00:08.839Z,25.53
2019-01-23T15:02:36.748Z,25.40
2019-01-23T15:05:04.617Z,24.20
2019-01-23T15:07:32.563Z,25.50
2019-01-23T15:09:59.887Z,26.13
2019-01-23T15:12:27.241Z,26.73
2019-01-23T15:14:54.843Z,28.23
2019-01-23T15:17:22.487Z,28.50
2019-01-23T15:19:49.925Z,28.70
2019-01-23T15:22:17.384Z,27.60
2019-01-23T15:24:44.663Z,28.87
2019-01-23T15:27:11.997Z,29.27
2019-01-23T15:29:39.627Z,29.33
2019-01-23T15:32:06.918Z,30.03
2019-01-23T15:34:34.531Z,29.43
2019-01-23T15:37:01.866Z,29.50
2019-01-23T15:39:29.158Z,29.83
2019-01-23T15:41:56.735Z,29.03
2019-01-23T15:44:24.317Z,30.77
2019-01-23T15:46:51.626Z,31.73
2019-01-23T15:49:18.972Z,30.77
2019-01-23T15:51:46.294Z,31.87
2019-01-23T15:54:13.746Z,29.63
2019-01-23T15:56:41.287Z,32.10
2019-01-23T15:59:09.007Z,32.37
2019-01-23T16:01:36.327Z,31.73
2019-01-23T16:04:03.823Z,34.00
2019-01-23T16:06:31.251Z,32.47
2019-01-23T16:08:58.863Z,31.80
2019-01-23T16:11:26.166Z,31.53
2019-01-23T16:13:53.475Z,32.97
2019-01-23T16:16:20.747Z,32.67
2019-01-23T16:18:48.449Z,32.17
2019-01-23T16:21:15.764Z,33.00
2019-01-23T16:23:43.113Z,32.57
2019-01-23T16:26:10.382Z,32.43
2019-01-23T16:28:37.726Z,32.27
2019-01-23T16:31:05.057Z,32.70
2019-01-23T16:33:32.420Z,32.77
2019-01-23T16:35:59.865Z,31.33
2019-01-23T16:38:27.184Z,31.70
2019-01-23T16:40:54.482Z,33.33
2019-01-23T16:43:21.806Z,31.57
2019-01-23T16:45:49.034Z,31.23
2019-01-23T16:48:16.372Z,31.03
2019-01-23T16:50:43.740Z,31.73
2019-01-23T16:53:11.214Z,30.67
2019-01-23T16:55:38.828Z,30.47
2019-01-23T16:58:07.316Z,30.07
2019-01-23T17:00:34.806Z,30.27
2019-01-23T17:03:03.054Z,30.77
2019-01-23T17:05:31.118Z,31.27
2019-01-23T17:08:00.631Z,30.87
2019-01-23T17:10:28.294Z,29.60
2019-01-23T17:12:55.596Z,31.20
2019-01-23T17:15:23.062Z,32.00
2019-01-23T17:17:50.780Z,31.57
2019-01-23T17:20:24.432Z,31.57
2019-01-23T17:22:51.768Z,32.70
2019-01-23T17:25:19.208Z,33.23
2019-01-23T17:27:46.883Z,32.80
2019-01-23T17:30:15.530Z,37.53
2019-01-23T17:32:45.773Z,38.63
2019-01-23T17:35:13.239Z,38.87
2019-01-23T17:37:40.518Z,35.57
2019-01-23T17:40:09.729Z,37.00
2019-01-23T17:42:37.829Z,36.37
2019-01-23T17:45:09.210Z,36.60
2019-01-23T17:47:36.608Z,34.00
2019-01-23T17:50:04.852Z,34.73
2019-01-23T17:52:32.581Z,32.43
2019-01-23T17:55:00.289Z,36.90
2019-01-23T17:57:27.900Z,35.33
2019-01-23T17:59:55.333Z,36.47
2019-01-23T18:02:23.206Z,34.43
2019-01-23T18:04:50.654Z,35.17
2019-01-23T18:07:18.323Z,35.73
2019-01-23T18:09:45.723Z,37.13
2019-01-23T18:12:13.077Z,37.67
2019-01-23T18:14:40.743Z,36.57
2019-01-23T18:17:08.063Z,38.70
2019-01-23T18:19:35.520Z,37.93
2019-01-23T18:22:03.281Z,38.60
2019-01-23T18:24:30.649Z,38.03
2019-01-23T18:26:58.426Z,39.73
2019-01-23T18:29:26.166Z,36.93
2019-01-23T18:32:04.722Z,37.40
2019-01-23T18:35:03.846Z,37.63
2019-01-23T18:37:48.066Z,38.90
2019-01-23T18:40:47.044Z,37.40
2019-01-23T18:43:40.043Z,37.33
2019-01-23T18:46:46.385Z,37.23
2019-01-23T18:49:27.237Z,36.80
2019-01-23T18:52:10.363Z,36.63
2019-01-23T18:54:37.794Z,37.70
2019-01-23T18:57:06.500Z,36.43
2019-01-23T18:59:33.939Z,35.37
2019-01-23T19:02:01.224Z,35.17
2019-01-23T19:04:29.184Z,33.90
2019-01-23T19:06:57.056Z,36.53
2019-01-23T19:09:24.408Z,35.77
2019-01-23T19:11:51.795Z,36.20
2019-01-23T19:14:24.376Z,34.90
2019-01-23T19:16:49.339Z,38.27
2019-01-23T19:19:16.665Z,37.43
2019-01-23T19:21:44.444Z,37.90
2019-01-23T19:24:12.000Z,36.40
2019-01-23T19:26:39.928Z,35.93
2019-01-23T19:29:07.245Z,37.77
2019-01-23T19:31:34.909Z,37.83
2019-01-23T19:34:02.830Z,35.60
2019-01-23T19:36:30.188Z,37.70
2019-01-23T19:38:57.850Z,37.33
2019-01-23T19:41:25.535Z,37.77
2019-01-23T19:43:52.873Z,39.23
2019-01-23T19:46:20.320Z,38.07
2019-01-23T19:48:47.696Z,38.47
2019-01-23T19:51:15.141Z,35.97
2019-01-23T19:53:42.747Z,37.77
2019-01-23T19:56:10.130Z,34.30
2019-01-23T19:58:37.578Z,34.30
2019-01-23T20:01:05.093Z,33.67
2019-01-23T20:03:32.437Z,34.57
2019-01-23T20:06:00.173Z,33.63
2019-01-23T20:08:27.566Z,34.00
2019-01-23T20:10:54.937Z,34.87
2019-01-23T20:13:22.657Z,35.20
2019-01-23T20:15:50.390Z,34.17
2019-01-23T20:18:17.808Z,34.93
2019-01-23T20:20:45.271Z,35.33
2019-01-23T20:23:13.007Z,34.30
2019-01-23T20:25:40.332Z,34.90
2019-01-23T20:28:10.042Z,35.33
2019-01-23T20:30:39.413Z,32.33
2019-01-23T20:33:06.753Z,34.30
2019-01-23T20:35:34.061Z,35.07
2019-01-23T20:38:02.148Z,34.37
2019-01-23T20:40:29.880Z,33.00
2019-01-23T20:42:57.457Z,33.80
2019-01-23T20:45:25.174Z,34.60
2019-01-23T20:47:52.504Z,33.40
2019-01-23T20:50:21.865Z,32.97
2019-01-23T20:52:49.284Z,33.63
2019-01-23T20:55:16.594Z,33.57
2019-01-23T20:57:44.310Z,32.87
2019-01-23T21:00:14.746Z,33.27
2019-01-23T21:02:42.091Z,33.10
2019-01-23T21:05:09.438Z,33.37
2019-01-23T21:07:37.493Z,32.00
2019-01-23T21:10:06.268Z,31.97
2019-01-23T21:12:34.132Z,35.57
2019-01-23T21:15:01.973Z,35.27
2019-01-23T21:17:29.700Z,35.53
2019-01-23T21:19:57.411Z,35.17
2019-01-23T21:22:25.741Z,34.63
2019-01-23T21:24:53.299Z,35.37
2019-01-23T21:27:20.651Z,36.13
2019-01-23T21:29:48.381Z,34.00
2019-01-23T21:32:15.784Z,35.03
2019-01-23T21:34:43.614Z,35.47
2019-01-23T21:37:10.932Z,35.40
2019-01-23T21:39:38.271Z,38.10
2019-01-23T21:42:05.736Z,36.10
2019-01-23T21:44:33.291Z,39.43
2019-01-23T21:47:00.821Z,36.77
2019-01-23T21:49:28.532Z,36.67
2019-01-23T21:51:56.227Z,35.40
2019-01-23T21:54:23.587Z,35.07
2019-01-23T21:56:50.874Z,34.10
2019-01-23T21:59:18.182Z,36.03
2019-01-23T22:01:45.557Z,34.63
2019-01-23T22:04:12.834Z,34.93
2019-01-23T22:06:40.759Z,34.03
2019-01-23T22:09:08.252Z,37.80
2019-01-23T22:11:35.545Z,34.63
2019-01-23T22:14:03.319Z,40.33
2019-01-23T22:16:30.865Z,49.83
2019-01-23T22:18:58.198Z,38.73
2019-01-23T22:21:25.473Z,40.73
2019-01-23T22:23:52.784Z,37.17
2019-01-23T22:26:20.149Z,36.87
2019-01-23T22:28:47.521Z,41.27
2019-01-23T22:31:14.812Z,50.80
2019-01-23T22:33:42.152Z,51.03
2019-01-23T22:36:09.846Z,51.63
2019-01-23T22:38:37.264Z,51.40
2019-01-23T22:41:04.557Z,50.07
2019-01-23T22:43:31.868Z,52.10
2019-01-23T22:45:59.173Z,51.27
2019-01-23T22:48:26.766Z,50.33
2019-01-23T22:50:54.030Z,51.90
2019-01-23T22:53:21.614Z,49.87
2019-01-23T22:55:48.936Z,51.80
2019-01-23T22:58:16.138Z,50.83
2019-01-23T23:01:08.482Z,49.07
2019-01-23T23:03:35.768Z,48.00
2019-01-23T23:06:03.697Z,48.30
2019-01-23T23:08:31.277Z,47.27
2019-01-23T23:10:58.815Z,51.50
2019-01-23T23:13:26.476Z,48.47
2019-01-23T23:15:53.756Z,49.90
2019-01-23T23:18:21.310Z,50.33
2019-01-23T23:20:48.561Z,48.27
2019-01-23T23:23:16.189Z,48.60
2019-01-23T23:25:43.477Z,50.53
2019-01-23T23:28:10.927Z,49.40
2019-01-23T23:30:38.202Z,48.17
2019-01-23T23:33:06.078Z,46.27
2019-01-23T23:35:33.416Z,49.10
2019-01-23T23:38:00.798Z,48.87
2019-01-23T23:40:28.111Z,49.47
2019-01-23T23:42:55.400Z,48.27
2019-01-23T23:45:22.712Z,48.53
2019-01-23T23:47:50.299Z,50.13
2019-01-23T23:50:17.622Z,48.13
2019-01-23T23:52:45.104Z,47.70
2019-01-23T23:55:12.753Z,49.53
2019-01-23T23:57:40.442Z,49.27
